createdAt,value
2023-01-20T00:02:19.792Z,98124.85
2023-01-20T00:04:50.620Z,98130.05
2023-01-20T00:07:20.545Z,98128.98
2023-01-20T00:09:50.577Z,98133.41
2023-01-20T00:12:20.438Z,98135.36
2023-01-20T00:14:50.757Z,98140.00
2023-01-20T00:17:20.566Z,98139.53
2023-01-20T00:19:49.780Z,98144.48
2023-01-20T00:22:19.600Z,98154.91
2023-01-20T00:24:49.761Z,98142.35
2023-01-20T00:27:20.567Z,98137.66
2023-01-20T00:29:50.530Z,98142.30
2023-01-20T00:32:20.703Z,98138.17
2023-01-20T00:34:50.665Z,98150.45
2023-01-20T00:37:20.796Z,98143.86
2023-01-20T00:39:50.037Z,98149.56
2023-01-20T00:42:19.789Z,98158.02
2023-01-20T00:44:50.139Z,98160.47
2023-01-20T00:47:21.133Z,98165.08
2023-01-20T00:49:51.053Z,98159.57
2023-01-20T00:52:20.676Z,98171.58
2023-01-20T00:54:50.836Z,98170.75
2023-01-20T00:57:20.092Z,98172.66
2023-01-20T00:59:49.847Z,98179.73
2023-01-20T01:02:20.142Z,98179.14
2023-01-20T01:04:52.615Z,98176.95
2023-01-20T01:07:21.869Z,98181.82
2023-01-20T01:09:51.450Z,98185.41
2023-01-20T01:12:23.615Z,98191.64
2023-01-20T01:14:52.989Z,98193.78
2023-01-20T01:17:23.529Z,98189.92
2023-01-20T01:19:55.839Z,98186.09
2023-01-20T01:22:24.908Z,98191.55
2023-01-20T01:24:54.168Z,98189.86
2023-01-20T01:27:23.429Z,98195.59
2023-01-20T01:29:55.568Z,98199.64
2023-01-20T01:32:25.002Z,98195.31
2023-01-20T01:34:54.331Z,98194.82
2023-01-20T01:37:23.544Z,98195.92
2023-01-20T01:39:52.695Z,98195.97
2023-01-20T01:42:22.155Z,98192.46
2023-01-20T01:45:05.375Z,98197.14
2023-01-20T01:47:34.658Z,98197.70
2023-01-20T01:50:03.921Z,98203.75
2023-01-20T01:52:33.443Z,98203.25
2023-01-20T01:55:02.706Z,98209.02
2023-01-20T01:57:34.939Z,98208.24
2023-01-20T02:00:04.516Z,98215.94
2023-01-20T02:02:33.753Z,98218.71
2023-01-20T02:05:02.971Z,98224.22
2023-01-20T02:07:32.189Z,98219.63
2023-01-20T02:10:01.425Z,98219.13
2023-01-20T02:12:30.679Z,98232.00
2023-01-20T02:15:00.423Z,98231.73
2023-01-20T02:17:37.062Z,98231.57
2023-01-20T02:20:25.666Z,98235.71
2023-01-20T02:22:59.541Z,98229.75
2023-01-20T02:25:33.349Z,98229.25
2023-01-20T02:28:19.204Z,98229.83
2023-01-20T02:31:07.194Z,98231.71
2023-01-20T02:33:46.640Z,98234.95
2023-01-20T02:36:17.276Z,98234.90
2023-01-20T02:39:01.884Z,98233.80
2023-01-20T02:41:50.743Z,98229.90
2023-01-20T02:44:24.172Z,98238.91
2023-01-20T02:47:07.039Z,98234.19
2023-01-20T02:49:37.744Z,98235.28
2023-01-20T02:52:16.165Z,98230.63
2023-01-20T02:54:45.979Z,98236.33
2023-01-20T02:57:16.194Z,98237.10
2023-01-20T02:59:46.916Z,98248.57
2023-01-20T03:02:17.358Z,98247.98
2023-01-20T03:04:48.762Z,98253.16
2023-01-20T03:07:18.333Z,98245.16
2023-01-20T03:09:49.279Z,98243.80
2023-01-20T03:12:21.995Z,98246.25
2023-01-20T03:14:52.816Z,98249.75
2023-01-20T03:17:22.007Z,98255.48
2023-01-20T03:19:54.787Z,98248.89
2023-01-20T03:22:24.064Z,98262.80
2023-01-20T03:24:53.360Z,98257.02
2023-01-20T03:27:22.569Z,98265.58
2023-01-20T03:29:51.807Z,98269.41
2023-01-20T03:32:22.913Z,98275.45
2023-01-20T03:34:52.067Z,98276.28
2023-01-20T03:37:22.369Z,98278.23
2023-01-20T03:39:51.546Z,98281.55
2023-01-20T03:42:25.731Z,98281.34
2023-01-20T03:44:59.378Z,98285.20
2023-01-20T03:47:33.067Z,98284.94
2023-01-20T03:50:06.488Z,98298.09
2023-01-20T03:52:47.440Z,98298.99
2023-01-20T03:55:08.872Z,98299.58
2023-01-20T03:57:39.421Z,98297.98
2023-01-20T04:00:09.133Z,98302.13
2023-01-20T04:02:38.372Z,98303.53
2023-01-20T04:05:07.759Z,98292.34
2023-01-20T04:07:37.083Z,98297.22
2023-01-20T04:10:08.279Z,98302.95
2023-01-20T04:12:37.937Z,98297.44
2023-01-20T04:15:07.517Z,98297.62
2023-01-20T04:17:45.344Z,98305.00
2023-01-20T04:20:19.330Z,98309.02
2023-01-20T04:23:04.222Z,98310.34
2023-01-20T04:25:49.626Z,98308.64
2023-01-20T04:28:19.422Z,98311.92
2023-01-20T04:30:52.155Z,98317.88
2023-01-20T04:33:23.556Z,98321.42
2023-01-20T04:36:06.379Z,98319.78
2023-01-20T04:38:37.940Z,98325.20
2023-01-20T04:41:09.902Z,98330.06
2023-01-20T04:43:42.208Z,98333.84
2023-01-20T04:46:12.734Z,98334.11
2023-01-20T04:48:42.068Z,98336.56
2023-01-20T04:51:11.407Z,98340.06
2023-01-20T04:53:40.753Z,98340.30
2023-01-20T04:56:11.811Z,98351.47
2023-01-20T04:58:41.071Z,98348.15
2023-01-20T05:01:10.424Z,98346.47
2023-01-20T05:03:39.617Z,98344.55
2023-01-20T05:06:08.923Z,98346.69
2023-01-20T05:08:38.181Z,98350.19
2023-01-20T05:11:07.459Z,98345.22
2023-01-20T05:13:40.519Z,98350.39
2023-01-20T05:16:09.196Z,98353.89
2023-01-20T05:18:38.737Z,98347.30
2023-01-20T05:21:09.830Z,98351.66
2023-01-20T05:23:39.065Z,98351.60
2023-01-20T05:26:08.375Z,98349.64
2023-01-20T05:28:37.886Z,98345.81
2023-01-20T05:31:07.223Z,98344.90
2023-01-20T05:33:36.536Z,98349.79
2023-01-20T05:36:09.246Z,98352.20
2023-01-20T05:38:38.435Z,98355.96
2023-01-20T05:41:07.936Z,98355.68
2023-01-20T05:43:37.549Z,98361.91
2023-01-20T05:46:07.887Z,98367.59
2023-01-20T05:48:37.849Z,98371.89
2023-01-20T05:51:08.032Z,98377.03
2023-01-20T05:53:39.069Z,98384.33
2023-01-20T05:56:08.533Z,98379.64
2023-01-20T05:58:37.780Z,98385.86
2023-01-20T06:01:10.271Z,98374.07
2023-01-20T06:03:39.659Z,98372.65
2023-01-20T06:06:12.352Z,98365.77
2023-01-20T06:08:41.629Z,98370.09
2023-01-20T06:11:10.813Z,98375.48
2023-01-20T06:13:40.618Z,98378.98
2023-01-20T06:16:10.087Z,98380.59
2023-01-20T06:18:39.347Z,98369.34
2023-01-20T06:21:08.760Z,98365.77
2023-01-20T06:23:37.931Z,98366.56
2023-01-20T06:26:10.773Z,98359.91
2023-01-20T06:28:40.281Z,98350.91
2023-01-20T06:31:14.185Z,98351.08
2023-01-20T06:33:43.487Z,98356.24
2023-01-20T06:36:14.528Z,98348.00
2023-01-20T06:38:45.331Z,98337.86
2023-01-20T06:41:14.643Z,98332.35
2023-01-20T06:43:43.968Z,98332.32
2023-01-20T06:46:13.681Z,98335.81
2023-01-20T06:48:43.286Z,98344.21
2023-01-20T06:51:13.516Z,98364.06
2023-01-20T06:53:42.850Z,98362.89
2023-01-20T06:56:12.647Z,98365.33
2023-01-20T06:58:42.060Z,98370.17
2023-01-20T07:01:12.776Z,98356.70
2023-01-20T07:03:44.010Z,98360.73
2023-01-20T07:06:17.014Z,98350.91
2023-01-20T07:08:46.502Z,98354.66
2023-01-20T07:11:16.027Z,98351.04
2023-01-20T07:13:45.795Z,98353.98
2023-01-20T07:16:15.955Z,98354.43
2023-01-20T07:18:45.912Z,98364.19
2023-01-20T07:21:15.126Z,98370.94
2023-01-20T07:23:44.403Z,98378.53
2023-01-20T07:26:17.246Z,98383.67
2023-01-20T07:28:46.577Z,98389.05
2023-01-20T07:31:17.281Z,98378.63
2023-01-20T07:33:48.119Z,98368.48
2023-01-20T07:36:17.439Z,98364.05
2023-01-20T07:38:48.101Z,98374.34
2023-01-20T07:41:17.673Z,98379.50
2023-01-20T07:43:48.287Z,98378.07
2023-01-20T07:46:17.497Z,98387.31
2023-01-20T07:48:46.775Z,98381.48
2023-01-20T07:51:16.141Z,98385.50
2023-01-20T07:53:48.990Z,98394.75
2023-01-20T07:56:25.116Z,98394.46
2023-01-20T07:58:57.112Z,98386.44
2023-01-20T08:01:27.336Z,98375.26
2023-01-20T08:03:56.736Z,98373.58
2023-01-20T08:06:26.548Z,98381.68
2023-01-20T08:08:58.445Z,98390.31
2023-01-20T08:11:26.515Z,98391.92
2023-01-20T08:13:55.720Z,98397.05
2023-01-20T08:16:25.043Z,98395.63
2023-01-20T08:18:55.758Z,98399.63
2023-01-20T08:21:25.539Z,98401.24
2023-01-20T08:23:55.085Z,98402.82
2023-01-20T08:26:25.912Z,98411.45
2023-01-20T08:28:55.263Z,98408.98
2023-01-20T08:31:25.180Z,98414.64
2023-01-20T08:33:55.137Z,98418.94
2023-01-20T08:36:28.457Z,98426.59
2023-01-20T08:38:58.468Z,98438.06
2023-01-20T08:41:28.490Z,98438.39
2023-01-20T08:43:57.960Z,98432.19
2023-01-20T08:46:27.292Z,98426.50
2023-01-20T08:48:57.209Z,98432.02
2023-01-20T08:51:27.764Z,98435.34
2023-01-20T08:53:57.066Z,98435.63
2023-01-20T08:56:26.306Z,98437.07
2023-01-20T08:58:55.464Z,98435.78
2023-01-20T09:01:25.561Z,98434.48
2023-01-20T09:04:06.429Z,98431.30
2023-01-20T09:06:28.537Z,98428.65
2023-01-20T09:08:57.907Z,98423.81
2023-01-20T09:11:27.197Z,98426.06
2023-01-20T09:13:57.086Z,98423.13
2023-01-20T09:16:26.795Z,98427.56
2023-01-20T09:18:59.667Z,98416.74
2023-01-20T09:21:29.205Z,98413.20
2023-01-20T09:23:58.636Z,98408.79
2023-01-20T09:26:35.828Z,98404.34
2023-01-20T09:28:58.331Z,98406.53
2023-01-20T09:31:27.667Z,98406.53
2023-01-20T09:33:58.400Z,98410.02
2023-01-20T09:36:29.016Z,98407.54
2023-01-20T09:39:15.863Z,98408.08
2023-01-20T09:42:02.460Z,98396.04
2023-01-20T09:44:33.093Z,98398.48
2023-01-20T09:47:21.608Z,98398.69
2023-01-20T09:50:26.873Z,98395.43
2023-01-20T09:53:04.759Z,98398.63
2023-01-20T09:55:38.157Z,98399.45
2023-01-20T09:58:17.595Z,98406.19
2023-01-20T10:00:48.221Z,98399.91
2023-01-20T10:03:18.953Z,98408.02
2023-01-20T10:05:49.146Z,98396.01
2023-01-20T10:08:26.223Z,98393.28
2023-01-20T10:10:56.879Z,98387.23
2023-01-20T10:13:36.941Z,98387.70
2023-01-20T10:16:07.470Z,98387.38
2023-01-20T10:18:41.394Z,98389.81
2023-01-20T10:21:12.244Z,98398.73
2023-01-20T10:23:46.160Z,98392.18
2023-01-20T10:26:19.824Z,98393.47
2023-01-20T10:28:57.363Z,98393.47
2023-01-20T10:31:28.786Z,98389.53
2023-01-20T10:33:58.203Z,98388.17
2023-01-20T10:36:28.811Z,98391.68
2023-01-20T10:38:59.592Z,98391.89
2023-01-20T10:41:41.699Z,98394.83
2023-01-20T10:44:14.339Z,98398.84
2023-01-20T10:46:59.063Z,98399.09
2023-01-20T10:49:47.167Z,98389.78
2023-01-20T10:52:32.795Z,98401.73
2023-01-20T10:55:19.811Z,98407.08
2023-01-20T10:58:06.696Z,98405.42
2023-01-20T11:00:36.603Z,98405.10
2023-01-20T11:03:07.124Z,98400.41
2023-01-20T11:05:42.003Z,98395.75
2023-01-20T11:08:12.842Z,98402.23
2023-01-20T11:10:42.747Z,98420.45
2023-01-20T11:13:12.296Z,98419.34
2023-01-20T11:15:42.988Z,98418.41
2023-01-20T11:18:19.908Z,98411.31
2023-01-20T11:21:03.002Z,98407.98
2023-01-20T11:23:41.928Z,98411.78
2023-01-20T11:26:12.689Z,98415.57
2023-01-20T11:28:49.438Z,98404.29
2023-01-20T11:31:19.333Z,98405.89
2023-01-20T11:33:59.483Z,98408.46
2023-01-20T11:36:28.774Z,98425.69
2023-01-20T11:38:58.360Z,98442.75
2023-01-20T11:41:31.135Z,98448.94
2023-01-20T11:44:00.696Z,98460.89
2023-01-20T11:46:30.983Z,98464.77
2023-01-20T11:49:16.585Z,98459.08
2023-01-20T11:51:49.877Z,98464.84
2023-01-20T11:54:23.295Z,98478.81
2023-01-20T11:56:54.167Z,98481.37
2023-01-20T11:59:25.136Z,98488.33
2023-01-20T12:01:55.875Z,98492.03
2023-01-20T12:04:25.536Z,98494.16
2023-01-20T12:06:58.221Z,98498.19
2023-01-20T12:09:29.355Z,98495.11
2023-01-20T12:12:01.936Z,98490.11
2023-01-20T12:14:35.317Z,98497.36
2023-01-20T12:17:15.492Z,98508.47
2023-01-20T12:19:46.265Z,98516.00
2023-01-20T12:22:16.855Z,98525.77
2023-01-20T12:25:09.290Z,98521.61
2023-01-20T12:27:39.972Z,98517.42
2023-01-20T12:30:10.008Z,98528.31
2023-01-20T12:32:40.630Z,98527.92
2023-01-20T12:35:11.272Z,98529.53
2023-01-20T12:37:42.161Z,98538.20
2023-01-20T12:40:19.030Z,98535.30
2023-01-20T12:43:01.750Z,98540.06
2023-01-20T12:45:48.873Z,98540.41
2023-01-20T12:48:19.489Z,98545.17
2023-01-20T12:50:53.551Z,98531.14
2023-01-20T12:53:37.700Z,98524.75
2023-01-20T12:56:14.344Z,98526.02
2023-01-20T12:58:47.984Z,98522.13
2023-01-20T13:01:35.080Z,98525.49
2023-01-20T13:04:05.978Z,98522.89
2023-01-20T13:06:48.736Z,98530.37
2023-01-20T13:09:25.508Z,98538.09
2023-01-20T13:11:56.521Z,98538.47
2023-01-20T13:14:27.209Z,98532.31
2023-01-20T13:17:04.025Z,98539.25
2023-01-20T13:19:34.606Z,98537.13
2023-01-20T13:22:13.478Z,98529.35
2023-01-20T13:24:43.786Z,98538.70
2023-01-20T13:27:14.385Z,98526.80
2023-01-20T13:29:50.926Z,98519.78
2023-01-20T13:32:30.693Z,98526.98
2023-01-20T13:34:59.877Z,98533.55
2023-01-20T13:37:30.210Z,98541.58
2023-01-20T13:40:00.951Z,98547.13
2023-01-20T13:42:40.814Z,98542.32
2023-01-20T13:45:18.139Z,98541.33
2023-01-20T13:47:52.197Z,98547.13
2023-01-20T13:50:26.400Z,98544.45
2023-01-20T13:52:57.135Z,98555.98
2023-01-20T13:55:30.219Z,98560.47
2023-01-20T13:58:02.136Z,98549.06
2023-01-20T14:00:31.263Z,98552.77
2023-01-20T14:03:00.467Z,98558.28
2023-01-20T14:05:30.860Z,98556.43
2023-01-20T14:08:00.151Z,98564.69
2023-01-20T14:10:30.070Z,98566.64
2023-01-20T14:12:59.406Z,98567.75
2023-01-20T14:15:29.714Z,98564.02
2023-01-20T14:17:58.855Z,98565.12
2023-01-20T14:20:28.167Z,98564.36
2023-01-20T14:22:57.386Z,98566.61
2023-01-20T14:25:27.342Z,98570.76
2023-01-20T14:27:57.380Z,98578.73
2023-01-20T14:30:27.060Z,98586.13
2023-01-20T14:32:56.225Z,98593.55
2023-01-20T14:35:28.383Z,98592.23
2023-01-20T14:37:57.705Z,98590.38
2023-01-20T14:40:30.624Z,98593.43
2023-01-20T14:43:09.435Z,98605.75
2023-01-20T14:45:38.730Z,98614.86
2023-01-20T14:48:08.215Z,98618.16
2023-01-20T14:50:37.559Z,98618.76
2023-01-20T14:53:06.988Z,98624.81
2023-01-20T14:55:41.026Z,98629.52
2023-01-20T14:58:10.710Z,98635.55
2023-01-20T15:00:40.035Z,98639.70
2023-01-20T15:03:11.704Z,98650.69
2023-01-20T15:05:42.050Z,98651.00
2023-01-20T15:08:16.152Z,98665.02
2023-01-20T15:10:45.360Z,98669.16
2023-01-20T15:13:25.117Z,98680.70
2023-01-20T15:15:54.484Z,98693.91
2023-01-20T15:18:24.170Z,98689.05
2023-01-20T15:21:03.817Z,98694.56
2023-01-20T15:23:36.542Z,98695.67
2023-01-20T15:26:12.865Z,98688.89
2023-01-20T15:28:45.247Z,98691.34
2023-01-20T15:31:15.310Z,98703.82
2023-01-20T15:33:44.774Z,98708.64
2023-01-20T15:36:24.767Z,98708.86
2023-01-20T15:38:53.988Z,98705.25
2023-01-20T15:41:23.483Z,98703.28
2023-01-20T15:43:54.279Z,98700.50
2023-01-20T15:46:23.973Z,98696.11
2023-01-20T15:48:53.766Z,98702.58
2023-01-20T15:51:22.958Z,98701.16
2023-01-20T15:53:52.506Z,98704.97
2023-01-20T15:56:23.877Z,98702.95
2023-01-20T15:58:53.597Z,98710.33
2023-01-20T16:01:25.022Z,98712.17
2023-01-20T16:03:55.964Z,98713.25
2023-01-20T16:06:26.506Z,98713.48
2023-01-20T16:08:55.710Z,98719.48
2023-01-20T16:11:25.006Z,98717.52
2023-01-20T16:13:54.645Z,98721.56
2023-01-20T16:16:24.485Z,98728.66
2023-01-20T16:18:53.908Z,98719.31
2023-01-20T16:21:23.498Z,98716.52
2023-01-20T16:23:53.628Z,98719.13
2023-01-20T16:26:24.072Z,98727.33
2023-01-20T16:32:31.010Z,98722.61
2023-01-20T16:35:00.412Z,98722.83
2023-01-20T16:37:29.663Z,98710.47
2023-01-20T16:39:58.934Z,98723.30
2023-01-20T16:42:28.202Z,98726.80
2023-01-20T16:44:57.407Z,98723.78
2023-01-20T16:47:32.531Z,98717.44
2023-01-20T16:50:01.871Z,98725.31
2023-01-20T16:52:31.003Z,98726.08
2023-01-20T16:55:00.307Z,98717.88
2023-01-20T16:57:29.634Z,98712.73
2023-01-20T16:59:58.824Z,98708.32
2023-01-20T17:02:28.426Z,98709.94
2023-01-20T17:04:57.617Z,98706.61
2023-01-20T17:07:28.312Z,98702.77
2023-01-20T17:09:58.524Z,98698.89
2023-01-20T17:12:27.772Z,98700.48
2023-01-20T17:14:57.240Z,98707.84
2023-01-20T17:17:27.315Z,98711.66
2023-01-20T17:19:56.766Z,98703.38
2023-01-20T17:22:25.967Z,98705.50
2023-01-20T17:24:55.268Z,98707.13
2023-01-20T17:27:24.485Z,98700.80
2023-01-20T17:29:53.678Z,98695.66
2023-01-20T17:32:22.837Z,98694.03
2023-01-20T17:34:52.156Z,98692.45
2023-01-20T17:37:21.956Z,98678.34
2023-01-20T17:39:52.054Z,98674.31
2023-01-20T17:42:21.937Z,98672.72
2023-01-20T17:44:51.965Z,98665.92
2023-01-20T17:47:22.039Z,98653.12
2023-01-20T17:49:52.239Z,98651.87
2023-01-20T17:52:23.608Z,98638.27
2023-01-20T17:54:53.867Z,98636.42
2023-01-20T17:57:25.074Z,98625.23
2023-01-20T17:59:54.599Z,98623.70
2023-01-20T18:02:23.967Z,98612.83
2023-01-20T18:04:53.826Z,98600.05
2023-01-20T18:07:23.853Z,98592.39
2023-01-20T18:09:53.961Z,98587.09
2023-01-20T18:12:23.885Z,98581.03
2023-01-20T18:14:55.104Z,98580.21
2023-01-20T18:17:24.276Z,98580.16
2023-01-20T18:19:53.764Z,98576.59
2023-01-20T18:22:23.736Z,98571.36
2023-01-20T18:24:53.939Z,98561.80
2023-01-20T18:27:23.611Z,98548.62
2023-01-20T18:29:53.019Z,98550.85
2023-01-20T18:32:23.105Z,98543.42
2023-01-20T18:34:52.976Z,98538.78
2023-01-20T18:37:22.997Z,98523.16
2023-01-20T18:39:53.174Z,98525.36
2023-01-20T18:42:22.901Z,98522.34
2023-01-20T18:44:53.331Z,98518.19
2023-01-20T18:47:22.943Z,98513.55
2023-01-20T18:49:53.105Z,98508.03
2023-01-20T18:52:23.027Z,98508.03
2023-01-20T18:54:52.961Z,98500.92
2023-01-20T18:57:23.030Z,98486.13
2023-01-20T18:59:53.084Z,98486.13
2023-01-20T19:02:22.989Z,98481.75
2023-01-20T19:04:53.120Z,98480.61
2023-01-20T19:07:23.068Z,98476.52
2023-01-20T19:09:53.248Z,98471.52
2023-01-20T19:12:23.162Z,98469.60
2023-01-20T19:14:53.442Z,98469.86
2023-01-20T19:17:23.103Z,98467.36
2023-01-20T19:19:53.189Z,98458.34
2023-01-20T19:22:23.084Z,98456.98
2023-01-20T19:24:53.170Z,98452.60
2023-01-20T19:27:23.445Z,98448.19
2023-01-20T19:29:53.216Z,98440.80
2023-01-20T19:32:23.065Z,98439.72
2023-01-20T19:34:53.242Z,98433.66
2023-01-20T19:37:23.172Z,98419.73
2023-01-20T19:39:53.138Z,98423.05
2023-01-20T19:42:24.220Z,98414.80
2023-01-20T19:44:54.062Z,98414.80
2023-01-20T19:47:24.096Z,98401.10
2023-01-20T19:52:30.376Z,98397.55
2023-01-20T19:54:59.650Z,98399.73
2023-01-20T19:57:28.985Z,98396.47
2023-01-20T19:59:58.223Z,98389.36
2023-01-20T20:02:28.338Z,98380.31
2023-01-20T20:04:57.616Z,98380.31
2023-01-20T20:07:26.902Z,98372.66
2023-01-20T20:09:56.196Z,98371.84
2023-01-20T20:12:25.295Z,98360.64
2023-01-20T20:14:54.452Z,98355.17
2023-01-20T20:17:24.231Z,98352.45
2023-01-20T20:19:53.938Z,98352.67
2023-01-20T20:22:24.302Z,98350.77
2023-01-20T20:24:54.179Z,98343.12
2023-01-20T20:27:24.160Z,98342.84
2023-01-20T20:29:54.689Z,98334.66
2023-01-20T20:32:26.640Z,98334.93
2023-01-20T20:34:54.906Z,98329.19
2023-01-20T20:37:24.080Z,98333.28
2023-01-20T20:39:54.199Z,98328.05
2023-01-20T20:42:24.237Z,98326.41
2023-01-20T20:44:53.478Z,98328.32
2023-01-20T20:47:25.206Z,98323.37
2023-01-20T20:49:54.308Z,98318.77
2023-01-20T20:52:24.142Z,98318.77
2023-01-20T20:54:55.694Z,98313.81
2023-01-20T20:57:25.002Z,98309.44
2023-01-20T20:59:59.136Z,98310.57
2023-01-20T21:02:24.963Z,98311.34
2023-01-20T21:04:54.243Z,98304.52
2023-01-20T21:07:26.882Z,98306.71
2023-01-20T21:09:56.227Z,98291.11
2023-01-20T21:12:25.514Z,98296.88
2023-01-20T21:14:54.703Z,98293.06
2023-01-20T21:17:24.048Z,98292.23
2023-01-20T21:19:55.943Z,98282.38
2023-01-20T21:22:25.104Z,98285.10
2023-01-20T21:24:54.518Z,98277.45
2023-01-20T21:27:24.298Z,98282.09
2023-01-20T21:29:54.250Z,98279.36
2023-01-20T21:32:24.346Z,98280.73
2023-01-20T21:34:53.801Z,98278.54
2023-01-20T21:37:23.483Z,98279.36
2023-01-20T21:39:53.736Z,98269.53
2023-01-20T21:42:23.368Z,98267.90
2023-01-20T21:44:53.470Z,98250.66
2023-01-20T21:47:23.971Z,98254.25
2023-01-20T21:50:10.828Z,98256.39
2023-01-20T21:52:43.177Z,98248.20
2023-01-20T21:55:17.672Z,98251.83
2023-01-20T21:57:48.406Z,98257.30
2023-01-20T22:00:18.448Z,98253.20
2023-01-20T22:02:47.861Z,98252.11
2023-01-20T22:05:17.147Z,98246.93
2023-01-20T22:07:47.828Z,98249.15
2023-01-20T22:10:17.325Z,98247.78
2023-01-20T22:12:46.832Z,98248.30
2023-01-20T22:15:16.167Z,98257.08
2023-01-20T22:17:46.340Z,98246.16
2023-01-20T22:20:16.025Z,98259.27
2023-01-20T22:22:45.422Z,98259.03
2023-01-20T22:25:14.680Z,98252.75
2023-01-20T22:27:43.927Z,98263.13
2023-01-20T22:30:13.539Z,98272.95
2023-01-20T22:32:42.806Z,98269.17
2023-01-20T22:35:12.354Z,98272.42
2023-01-20T22:37:41.607Z,98285.84
2023-01-20T22:40:11.327Z,98291.30
2023-01-20T22:42:40.685Z,98289.93
2023-01-20T22:45:10.560Z,98286.11
2023-01-20T22:47:39.809Z,98281.51
2023-01-20T22:50:09.382Z,98296.27
2023-01-20T22:52:38.633Z,98296.27
2023-01-20T22:55:08.126Z,98294.90
2023-01-20T22:57:37.377Z,98302.55
2023-01-20T23:00:08.323Z,98305.59
2023-01-20T23:02:38.861Z,98296.57
2023-01-20T23:05:08.169Z,98298.76
2023-01-20T23:07:38.869Z,98295.48
2023-01-20T23:10:08.585Z,98295.22
2023-01-20T23:12:37.820Z,98292.49
2023-01-20T23:15:07.376Z,98293.34
2023-01-20T23:17:36.618Z,98285.66
2023-01-20T23:20:05.845Z,98287.63
2023-01-20T23:22:35.137Z,98285.16
2023-01-20T23:25:06.738Z,98291.44
2023-01-20T23:27:35.909Z,98285.16
2023-01-20T23:30:05.556Z,98287.03
2023-01-20T23:32:34.819Z,98292.49
2023-01-20T23:35:04.067Z,98291.67
2023-01-20T23:37:33.416Z,98291.67
2023-01-20T23:40:02.613Z,98293.30
2023-01-20T23:42:31.822Z,98296.03
2023-01-20T23:45:01.393Z,98294.66
2023-01-20T23:47:30.581Z,98296.57
2023-01-20T23:49:59.743Z,98289.98
2023-01-20T23:52:29.013Z,98289.44
2023-01-20T23:54:58.732Z,98284.23
2023-01-20T23:57:28.519Z,98286.11
2023-01-20T23:59:57.749Z,98293.16
